createdAt,value
2017-05-23T00:02:05.035Z,8.76
2017-05-23T00:04:33.524Z,8.42
2017-05-23T00:07:01.791Z,8.46
2017-05-23T00:09:30.059Z,8.10
2017-05-23T00:11:58.359Z,7.70
2017-05-23T00:14:26.631Z,8.16
2017-05-23T00:16:55.098Z,8.58
2017-05-23T00:19:23.367Z,8.34
2017-05-23T00:21:51.642Z,7.22
2017-05-23T00:24:19.941Z,8.12
2017-05-23T00:26:48.216Z,9.40
2017-05-23T00:29:16.682Z,9.26
2017-05-23T00:31:44.954Z,9.56
2017-05-23T00:34:13.231Z,8.88
2017-05-23T00:36:41.534Z,7.94
2017-05-23T00:39:09.835Z,8.86
2017-05-23T00:41:38.471Z,10.10
2017-05-23T00:44:06.742Z,8.24
2017-05-23T00:46:35.075Z,8.82
2017-05-23T00:49:03.370Z,9.00
2017-05-23T00:51:31.643Z,9.62
2017-05-23T00:54:00.154Z,9.40
2017-05-23T00:56:28.533Z,9.94
2017-05-23T00:58:56.811Z,9.56
2017-05-23T01:01:25.115Z,12.54
2017-05-23T01:03:53.385Z,7.76
2017-05-23T01:06:22.052Z,7.78
2017-05-23T01:08:50.432Z,7.90
2017-05-23T01:11:18.799Z,8.04
2017-05-23T01:13:47.283Z,8.40
2017-05-23T01:16:15.558Z,8.06
2017-05-23T01:18:43.845Z,7.00
2017-05-23T01:21:12.327Z,8.24
2017-05-23T01:23:40.602Z,8.98
2017-05-23T01:26:08.872Z,9.74
2017-05-23T01:28:37.171Z,8.76
2017-05-23T01:31:05.442Z,8.62
2017-05-23T01:33:33.894Z,8.26
2017-05-23T01:36:02.174Z,8.64
2017-05-23T01:38:30.458Z,10.46
2017-05-23T01:40:59.034Z,8.76
2017-05-23T01:43:27.299Z,8.30
2017-05-23T01:45:55.570Z,9.56
2017-05-23T01:48:24.059Z,9.36
2017-05-23T01:50:52.338Z,9.40
2017-05-23T01:53:20.624Z,9.46
2017-05-23T01:55:48.922Z,10.08
2017-05-23T01:58:17.194Z,9.32
2017-05-23T02:00:45.495Z,8.78
2017-05-23T02:03:13.771Z,10.22
2017-05-23T02:05:42.194Z,9.44
2017-05-23T02:08:10.463Z,9.02
2017-05-23T02:10:38.743Z,10.58
2017-05-23T02:13:07.043Z,10.14
2017-05-23T02:15:35.399Z,8.94
2017-05-23T02:18:03.890Z,10.34
2017-05-23T02:20:32.172Z,10.34
2017-05-23T02:23:00.447Z,10.10
2017-05-23T02:25:28.755Z,9.92
2017-05-23T02:27:57.036Z,10.72
2017-05-23T02:30:25.362Z,9.98
2017-05-23T02:32:53.637Z,11.98
2017-05-23T02:35:22.123Z,11.08
2017-05-23T02:37:50.398Z,11.66
2017-05-23T02:40:18.727Z,12.12
2017-05-23T02:42:47.247Z,11.42
2017-05-23T02:45:15.531Z,10.96
2017-05-23T02:47:44.946Z,11.18
2017-05-23T02:50:14.682Z,12.92
2017-05-23T02:52:42.968Z,11.62
2017-05-23T02:55:12.323Z,9.42
2017-05-23T02:57:40.696Z,12.40
2017-05-23T03:00:08.995Z,10.88
2017-05-23T03:02:37.428Z,11.24
2017-05-23T03:05:05.730Z,12.24
2017-05-23T03:07:34.040Z,12.74
2017-05-23T03:10:02.386Z,10.58
2017-05-23T03:12:30.663Z,12.46
2017-05-23T03:14:58.940Z,11.70
2017-05-23T03:17:27.258Z,11.44
2017-05-23T03:19:55.555Z,10.72
2017-05-23T03:22:23.870Z,10.68
2017-05-23T03:24:52.193Z,11.92
2017-05-23T03:27:20.475Z,11.56
2017-05-23T03:29:49.163Z,11.52
2017-05-23T03:32:17.466Z,11.94
2017-05-23T03:34:45.956Z,11.96
2017-05-23T03:37:14.237Z,12.58
2017-05-23T03:39:42.523Z,12.94
2017-05-23T03:42:10.889Z,10.42
2017-05-23T03:44:39.167Z,12.30
2017-05-23T03:47:07.851Z,11.80
2017-05-23T03:49:36.178Z,18.84
2017-05-23T03:52:04.495Z,14.54
2017-05-23T03:54:32.844Z,10.78
2017-05-23T03:57:01.131Z,11.66
2017-05-23T03:59:29.637Z,13.04
2017-05-23T04:01:57.916Z,11.96
2017-05-23T04:04:26.194Z,15.10
2017-05-23T04:06:54.495Z,12.72
2017-05-23T04:09:22.775Z,18.18
2017-05-23T04:11:51.079Z,12.62
2017-05-23T04:14:19.359Z,11.48
2017-05-23T04:16:47.771Z,10.70
2017-05-23T04:19:16.056Z,12.62
2017-05-23T04:21:44.342Z,11.08
2017-05-23T04:24:12.671Z,10.22
2017-05-23T04:26:40.953Z,11.28
2017-05-23T04:29:09.783Z,11.52
2017-05-23T04:31:38.063Z,12.22
2017-05-23T04:34:06.342Z,11.68
2017-05-23T04:36:34.651Z,10.68
2017-05-23T04:39:02.972Z,11.02
2017-05-23T04:41:31.447Z,12.70
2017-05-23T04:43:59.730Z,12.68
2017-05-23T04:46:28.014Z,11.14
2017-05-23T04:48:56.374Z,10.54
2017-05-23T04:51:24.658Z,12.06
2017-05-23T04:53:52.996Z,9.42
2017-05-23T04:56:21.287Z,12.00
2017-05-23T04:58:49.806Z,14.54
2017-05-23T05:01:18.159Z,11.48
2017-05-23T05:03:46.467Z,10.16
2017-05-23T05:06:14.783Z,12.16
2017-05-23T05:08:43.064Z,10.40
2017-05-23T05:11:11.628Z,10.22
2017-05-23T05:13:39.927Z,11.68
2017-05-23T05:16:08.215Z,12.62
2017-05-23T05:18:36.612Z,10.00
2017-05-23T05:21:04.935Z,13.02
2017-05-23T05:23:33.460Z,12.56
2017-05-23T05:26:01.743Z,12.50
2017-05-23T05:28:30.023Z,10.86
2017-05-23T05:30:58.397Z,10.16
2017-05-23T05:33:26.678Z,9.80
2017-05-23T05:35:55.360Z,11.22
2017-05-23T05:38:24.056Z,13.78
2017-05-23T05:40:52.345Z,12.84
2017-05-23T05:43:20.643Z,9.60
2017-05-23T05:45:49.146Z,9.62
2017-05-23T05:48:17.570Z,11.10
2017-05-23T05:50:45.863Z,10.58
2017-05-23T05:53:14.195Z,10.46
2017-05-23T05:55:42.858Z,14.76
2017-05-23T05:58:11.167Z,11.72
2017-05-23T06:00:39.446Z,12.62
2017-05-23T06:03:07.746Z,9.60
2017-05-23T06:05:36.025Z,11.22
2017-05-23T06:08:04.670Z,10.12
2017-05-23T06:10:32.954Z,11.38
2017-05-23T06:13:07.167Z,10.18
2017-05-23T06:15:35.453Z,11.22
2017-05-23T06:18:03.968Z,11.48
2017-05-23T06:20:32.376Z,22.22
2017-05-23T06:23:00.658Z,13.42
2017-05-23T06:25:28.938Z,30.66
2017-05-23T06:27:57.426Z,10.38
2017-05-23T06:30:25.816Z,17.30
2017-05-23T06:32:54.101Z,22.02
2017-05-23T06:35:22.410Z,11.46
2017-05-23T06:37:50.686Z,8.96
2017-05-23T06:40:18.999Z,10.20
2017-05-23T06:42:47.283Z,11.68
2017-05-23T06:45:15.692Z,9.84
2017-05-23T06:47:43.983Z,13.88
2017-05-23T06:50:12.329Z,12.50
2017-05-23T06:52:40.743Z,11.36
2017-05-23T06:55:09.023Z,13.90
2017-05-23T06:57:37.303Z,11.56
2017-05-23T07:00:05.019Z,11.46
2017-05-23T07:02:33.316Z,11.12
2017-05-23T07:05:01.597Z,12.28
2017-05-23T07:07:29.922Z,11.88
2017-05-23T07:09:58.202Z,10.64
2017-05-23T07:12:26.519Z,14.94
2017-05-23T07:14:54.883Z,15.94
2017-05-23T07:17:23.191Z,11.60
2017-05-23T07:19:51.471Z,10.24
2017-05-23T07:22:20.422Z,11.10
2017-05-23T07:24:48.699Z,10.80
2017-05-23T07:27:16.990Z,12.02
2017-05-23T07:29:45.319Z,10.50
2017-05-23T07:32:13.598Z,11.90
2017-05-23T07:34:41.875Z,10.48
2017-05-23T07:37:10.261Z,10.32
2017-05-23T07:39:38.535Z,9.34
2017-05-23T07:42:06.832Z,9.24
2017-05-23T07:44:35.159Z,9.68
2017-05-23T07:47:03.432Z,10.28
2017-05-23T07:49:31.866Z,17.52
2017-05-23T07:52:00.142Z,10.72
2017-05-23T07:54:28.419Z,10.46
2017-05-23T07:56:56.735Z,9.68
2017-05-23T07:59:25.015Z,8.10
2017-05-23T08:01:53.343Z,9.16
2017-05-23T08:04:21.618Z,9.74
2017-05-23T08:06:49.951Z,8.94
2017-05-23T08:09:18.224Z,9.58
2017-05-23T08:11:46.571Z,11.12
2017-05-23T08:14:14.926Z,9.30
2017-05-23T08:16:43.201Z,8.46
2017-05-23T08:19:11.559Z,9.24
2017-05-23T08:21:39.831Z,8.38
2017-05-23T08:24:08.098Z,8.84
2017-05-23T08:26:36.859Z,10.70
2017-05-23T08:29:05.130Z,9.78
2017-05-23T08:31:33.402Z,8.48
2017-05-23T08:34:01.717Z,8.64
2017-05-23T08:36:29.994Z,9.58
2017-05-23T08:38:58.324Z,9.64
2017-05-23T08:41:26.635Z,9.74
2017-05-23T08:43:54.925Z,11.02
2017-05-23T08:46:23.338Z,10.04
2017-05-23T08:48:51.679Z,10.38
2017-05-23T08:51:19.994Z,10.02
2017-05-23T08:53:48.267Z,9.80
2017-05-23T08:56:16.598Z,9.24
2017-05-23T08:58:44.896Z,11.16
2017-05-23T09:01:13.184Z,10.88
2017-05-23T09:03:41.515Z,10.22
2017-05-23T09:06:09.791Z,10.00
2017-05-23T09:08:38.071Z,12.12
2017-05-23T09:11:06.387Z,11.34
2017-05-23T09:13:34.667Z,11.52
2017-05-23T09:16:03.025Z,12.24
2017-05-23T09:18:31.315Z,11.12
2017-05-23T09:21:00.621Z,11.14
2017-05-23T09:23:28.903Z,15.00
2017-05-23T09:26:16.983Z,11.30
2017-05-23T09:28:45.263Z,10.20
2017-05-23T09:31:13.539Z,11.76
2017-05-23T09:33:41.863Z,12.88
2017-05-23T09:36:10.147Z,13.00
2017-05-23T09:38:38.422Z,13.88
2017-05-23T09:41:06.755Z,10.62
2017-05-23T09:43:35.064Z,12.18
2017-05-23T09:46:03.342Z,10.52
2017-05-23T09:48:31.662Z,11.78
2017-05-23T09:50:59.948Z,11.56
2017-05-23T09:53:28.272Z,11.42
2017-05-23T09:55:56.547Z,11.32
2017-05-23T09:58:24.952Z,10.44
2017-05-23T10:00:53.238Z,11.40
2017-05-23T10:03:21.587Z,11.42
2017-05-23T10:05:49.859Z,10.02
2017-05-23T10:08:18.139Z,11.14
2017-05-23T10:10:46.507Z,11.28
2017-05-23T10:13:14.852Z,10.46
2017-05-23T10:15:43.155Z,9.44
2017-05-23T10:18:11.447Z,10.44
2017-05-23T10:20:39.787Z,12.56
2017-05-23T10:23:08.100Z,12.12
2017-05-23T10:25:36.379Z,11.44
2017-05-23T10:28:04.715Z,12.80
2017-05-23T10:30:32.995Z,10.70
2017-05-23T10:33:01.293Z,10.42
2017-05-23T10:35:29.623Z,9.78
2017-05-23T10:37:57.909Z,12.06
2017-05-23T10:40:26.190Z,11.32
2017-05-23T10:42:54.523Z,10.16
2017-05-23T10:45:22.802Z,10.66
2017-05-23T10:47:51.131Z,12.56
2017-05-23T10:50:19.415Z,11.56
2017-05-23T10:52:47.702Z,16.50
2017-05-23T10:55:16.050Z,12.92
2017-05-23T10:57:44.332Z,14.08
2017-05-23T11:00:12.610Z,12.90
2017-05-23T11:02:41.099Z,14.72
2017-05-23T11:05:09.378Z,10.82
2017-05-23T11:07:37.759Z,10.96
2017-05-23T11:10:06.035Z,11.24
2017-05-23T11:12:34.312Z,9.30
2017-05-23T11:15:02.660Z,9.82
2017-05-23T11:17:30.946Z,12.06
2017-05-23T11:19:59.223Z,12.18
2017-05-23T11:22:27.539Z,12.80
2017-05-23T11:24:56.451Z,14.78
2017-05-23T11:27:24.800Z,10.72
2017-05-23T11:29:53.081Z,11.68
2017-05-23T11:32:21.404Z,10.12
2017-05-23T11:34:49.679Z,9.40
2017-05-23T11:37:17.963Z,12.00
2017-05-23T11:39:46.314Z,10.80
2017-05-23T11:42:14.584Z,9.04
2017-05-23T11:44:42.867Z,9.40
2017-05-23T11:47:11.205Z,11.28
2017-05-23T11:49:39.475Z,7.00
2017-05-23T11:52:07.807Z,9.20
2017-05-23T11:54:36.079Z,9.62
2017-05-23T11:57:04.359Z,10.40
2017-05-23T11:59:32.691Z,11.18
2017-05-23T12:02:00.978Z,10.80
2017-05-23T12:04:29.278Z,16.28
2017-05-23T12:06:57.603Z,11.30
2017-05-23T12:09:25.882Z,7.96
2017-05-23T12:11:54.159Z,8.64
2017-05-23T12:14:22.500Z,8.30
2017-05-23T12:16:50.042Z,12.54
2017-05-23T12:19:18.324Z,11.32
2017-05-23T12:21:46.680Z,13.80
2017-05-23T12:24:14.967Z,11.60
2017-05-23T12:26:43.260Z,14.48
2017-05-23T12:29:11.594Z,11.50
2017-05-23T12:31:39.914Z,15.00
2017-05-23T12:34:08.252Z,14.60
2017-05-23T12:36:36.594Z,11.22
2017-05-23T12:39:04.885Z,14.16
2017-05-23T12:41:33.170Z,12.30
2017-05-23T12:44:01.526Z,14.66
2017-05-23T12:46:29.809Z,14.90
2017-05-23T12:48:58.090Z,16.60
2017-05-23T12:51:26.415Z,12.02
2017-05-23T12:53:54.844Z,16.06
2017-05-23T12:56:23.167Z,16.74
2017-05-23T12:58:51.446Z,21.10
2017-05-23T13:01:19.779Z,21.70
2017-05-23T13:03:48.065Z,27.00
2017-05-23T13:06:16.353Z,23.26
2017-05-23T13:08:44.688Z,18.70
2017-05-23T13:11:12.969Z,16.64
2017-05-23T13:13:41.253Z,19.34
2017-05-23T13:16:09.586Z,15.56
2017-05-23T13:18:37.871Z,20.02
2017-05-23T13:21:06.147Z,19.12
2017-05-23T13:23:34.518Z,14.76
2017-05-23T13:26:02.800Z,12.84
2017-05-23T13:28:31.213Z,16.50
2017-05-23T13:30:59.495Z,13.36
2017-05-23T13:33:27.780Z,11.90
2017-05-23T13:35:56.115Z,14.78
2017-05-23T13:38:24.402Z,16.20
2017-05-23T13:43:27.490Z,18.84
2017-05-23T13:45:55.796Z,15.74
2017-05-23T13:48:24.072Z,16.34
2017-05-23T13:50:52.403Z,17.72
2017-05-23T13:53:20.684Z,18.04
2017-05-23T13:55:48.977Z,17.84
2017-05-23T13:58:17.303Z,18.02
2017-05-23T14:00:45.591Z,16.40
2017-05-23T14:03:13.932Z,17.12
2017-05-23T14:05:42.255Z,17.14
2017-05-23T14:08:10.534Z,14.90
2017-05-23T14:10:38.964Z,14.24
2017-05-23T14:13:07.244Z,12.34
2017-05-23T14:15:35.522Z,11.88
2017-05-23T14:18:03.843Z,13.34
2017-05-23T14:20:32.118Z,13.82
2017-05-23T14:23:00.405Z,14.44
2017-05-23T14:25:28.726Z,13.20
2017-05-23T14:27:57.007Z,14.08
2017-05-23T14:30:25.354Z,15.60
2017-05-23T14:32:53.630Z,14.48
2017-05-23T14:35:21.922Z,15.94
2017-05-23T14:37:50.267Z,14.70
2017-05-23T14:40:18.559Z,13.88
2017-05-23T14:42:46.835Z,12.98
2017-05-23T14:45:15.183Z,11.56
2017-05-23T14:47:43.471Z,11.94
2017-05-23T14:50:11.785Z,10.92
2017-05-23T14:52:40.115Z,13.02
2017-05-23T14:55:08.399Z,14.42
2017-05-23T14:57:36.752Z,12.18
2017-05-23T15:00:05.034Z,12.96
2017-05-23T15:02:33.327Z,12.44
2017-05-23T15:05:01.651Z,12.06
2017-05-23T15:07:29.999Z,11.78
2017-05-23T15:09:58.275Z,11.54
2017-05-23T15:12:26.554Z,13.10
2017-05-23T15:14:54.898Z,11.32
2017-05-23T15:17:23.260Z,13.94
2017-05-23T15:19:51.534Z,10.30
2017-05-23T15:22:19.814Z,11.34
2017-05-23T15:24:48.126Z,10.48
2017-05-23T15:27:16.444Z,12.40
2017-05-23T15:29:44.806Z,9.26
2017-05-23T15:32:13.086Z,11.96
2017-05-23T15:34:41.372Z,9.88
2017-05-23T15:37:09.705Z,11.38
2017-05-23T15:39:37.986Z,11.50
2017-05-23T15:42:06.266Z,14.36
2017-05-23T15:44:34.588Z,11.42
2017-05-23T15:47:02.914Z,12.84
2017-05-23T15:49:31.210Z,12.90
2017-05-23T15:51:59.502Z,12.36
2017-05-23T15:54:27.822Z,12.02
2017-05-23T15:56:56.149Z,11.84
2017-05-23T15:59:24.435Z,11.72
2017-05-23T16:01:52.715Z,10.02
2017-05-23T16:04:21.035Z,10.36
2017-05-23T16:06:49.327Z,10.24
2017-05-23T16:09:17.678Z,9.96
2017-05-23T16:11:45.963Z,10.84
2017-05-23T16:14:14.247Z,10.46
2017-05-23T16:16:43.490Z,11.40
2017-05-23T16:19:11.767Z,10.56
2017-05-23T16:21:40.118Z,12.26
2017-05-23T16:24:08.410Z,10.26
2017-05-23T16:26:36.699Z,9.54
2017-05-23T16:29:05.019Z,11.94
2017-05-23T16:31:33.408Z,11.80
2017-05-23T16:34:01.763Z,9.98
2017-05-23T16:36:30.035Z,9.44
2017-05-23T16:38:58.310Z,9.34
2017-05-23T16:41:26.634Z,9.24
2017-05-23T16:43:54.911Z,8.80
2017-05-23T16:46:23.242Z,11.70
2017-05-23T16:48:51.549Z,12.86
2017-05-23T16:51:19.858Z,9.80
2017-05-23T16:53:48.207Z,9.92
2017-05-23T16:56:16.520Z,8.82
2017-05-23T16:58:44.847Z,7.40
2017-05-23T17:01:13.126Z,7.90
2017-05-23T17:03:41.399Z,7.92
2017-05-23T17:06:09.775Z,8.06
2017-05-23T17:08:38.112Z,6.40
2017-05-23T17:11:06.384Z,7.60
2017-05-23T17:13:34.851Z,7.22
2017-05-23T17:16:03.180Z,8.48
2017-05-23T17:18:31.492Z,10.08
2017-05-23T17:20:59.772Z,12.80
2017-05-23T17:23:28.120Z,14.14
2017-05-23T17:25:56.413Z,12.86
2017-05-23T17:28:24.801Z,16.28
2017-05-23T17:30:53.126Z,16.14
2017-05-23T17:33:21.464Z,16.64
2017-05-23T17:35:49.748Z,18.44
2017-05-23T17:38:18.027Z,17.24
2017-05-23T17:40:46.386Z,17.56
2017-05-23T17:43:14.671Z,19.56
2017-05-23T17:45:42.955Z,18.40
2017-05-23T17:48:11.286Z,17.24
2017-05-23T17:50:39.581Z,16.86
2017-05-23T17:53:07.871Z,14.52
2017-05-23T17:55:36.227Z,13.84
2017-05-23T17:58:04.511Z,13.72
2017-05-23T18:00:32.795Z,11.94
2017-05-23T18:03:01.119Z,11.66
2017-05-23T18:05:29.398Z,11.62
2017-05-23T18:07:56.953Z,10.94
2017-05-23T18:10:25.295Z,12.12
2017-05-23T18:12:53.575Z,11.10
2017-05-23T18:15:21.855Z,18.08
2017-05-23T18:17:50.252Z,18.32
2017-05-23T18:20:18.627Z,18.94
2017-05-23T18:22:46.970Z,17.32
2017-05-23T18:25:15.259Z,14.20
2017-05-23T18:27:43.538Z,13.28
2017-05-23T18:30:11.883Z,10.78
2017-05-23T18:32:40.184Z,10.62
2017-05-23T18:35:08.568Z,10.00
2017-05-23T18:37:36.911Z,9.78
2017-05-23T18:40:05.199Z,9.36
2017-05-23T18:42:33.519Z,8.22
2017-05-23T18:45:01.848Z,9.84
2017-05-23T18:47:30.136Z,8.10
2017-05-23T18:49:58.419Z,9.66
2017-05-23T18:52:26.741Z,7.88
2017-05-23T18:54:55.071Z,5.06
2017-05-23T18:57:23.348Z,6.36
2017-05-23T18:59:51.667Z,5.82
2017-05-23T19:02:20.014Z,5.98
2017-05-23T19:04:48.304Z,5.84
2017-05-23T19:07:16.587Z,6.90
2017-05-23T19:09:44.915Z,5.70
2017-05-23T19:12:13.188Z,6.24
2017-05-23T19:14:42.175Z,6.04
2017-05-23T19:17:10.455Z,5.12
2017-05-23T19:19:39.059Z,5.22
2017-05-23T19:22:07.330Z,6.00
2017-05-23T19:24:35.655Z,4.12
2017-05-23T19:27:03.997Z,7.42
2017-05-23T19:29:32.335Z,4.86
2017-05-23T19:32:00.609Z,4.96
2017-05-23T19:34:28.939Z,5.20
2017-05-23T19:36:57.227Z,4.02
2017-05-23T19:39:25.603Z,4.52
2017-05-23T19:41:53.882Z,4.32
2017-05-23T19:44:22.160Z,5.04
2017-05-23T19:46:50.486Z,4.78
2017-05-23T19:49:18.759Z,4.08
2017-05-23T19:51:47.046Z,3.24
2017-05-23T19:54:15.359Z,4.72
2017-05-23T19:56:43.631Z,4.08
2017-05-23T19:59:11.912Z,3.62
2017-05-23T20:01:40.239Z,3.34
2017-05-23T20:04:08.508Z,4.88
2017-05-23T20:06:36.775Z,3.64
2017-05-23T20:09:05.120Z,3.38
2017-05-23T20:11:33.428Z,4.04
2017-05-23T20:14:01.704Z,3.10
2017-05-23T20:16:30.051Z,2.74
2017-05-23T20:18:58.340Z,2.78
2017-05-23T20:21:26.627Z,3.40
2017-05-23T20:23:54.987Z,3.32
2017-05-23T20:26:23.262Z,3.34
2017-05-23T20:28:51.535Z,3.38
2017-05-23T20:31:19.851Z,3.56
2017-05-23T20:33:48.122Z,3.40
2017-05-23T20:36:16.399Z,3.48
2017-05-23T20:38:44.754Z,3.68
2017-05-23T20:41:13.027Z,3.94
2017-05-23T20:43:41.307Z,6.64
2017-05-23T20:46:09.631Z,3.68
2017-05-23T20:48:37.905Z,3.48
2017-05-23T20:51:06.181Z,4.22
2017-05-23T20:53:34.734Z,3.62
2017-05-23T20:56:03.019Z,4.06
2017-05-23T20:58:31.292Z,3.08
2017-05-23T21:00:59.623Z,3.26
2017-05-23T21:03:27.950Z,3.40
2017-05-23T21:05:56.228Z,3.34
2017-05-23T21:08:24.551Z,2.42
2017-05-23T21:10:52.823Z,3.76
2017-05-23T21:13:21.096Z,2.88
2017-05-23T21:15:49.427Z,2.64
2017-05-23T21:18:17.699Z,3.64
2017-05-23T21:20:45.984Z,2.26
2017-05-23T21:23:14.318Z,4.92
2017-05-23T21:25:43.205Z,2.70
2017-05-23T21:28:11.516Z,3.00
2017-05-23T21:30:39.074Z,3.76
2017-05-23T21:33:07.380Z,5.28
2017-05-23T21:35:35.655Z,7.16
2017-05-23T21:38:03.964Z,4.90
2017-05-23T21:40:32.297Z,2.80
2017-05-23T21:43:00.570Z,2.76
2017-05-23T21:45:28.838Z,3.64
2017-05-23T21:47:57.159Z,2.60
2017-05-23T21:50:25.431Z,2.44
2017-05-23T21:52:53.711Z,3.12
2017-05-23T21:55:22.035Z,6.50
2017-05-23T21:57:50.310Z,3.88
2017-05-23T22:00:18.587Z,3.62
2017-05-23T22:02:46.912Z,5.62
2017-05-23T22:05:15.179Z,5.68
2017-05-23T22:07:43.452Z,4.06
2017-05-23T22:10:11.773Z,4.16
2017-05-23T22:12:40.096Z,4.70
2017-05-23T22:15:08.379Z,3.28
2017-05-23T22:17:36.651Z,7.42
2017-05-23T22:20:04.998Z,4.82
2017-05-23T22:22:33.271Z,5.54
2017-05-23T22:25:01.544Z,3.46
2017-05-23T22:27:29.866Z,9.50
2017-05-23T22:29:58.143Z,4.38
2017-05-23T22:32:26.418Z,3.82
2017-05-23T22:34:54.740Z,3.82
2017-05-23T22:37:23.011Z,7.00
2017-05-23T22:39:51.289Z,5.40
2017-05-23T22:42:19.599Z,6.44
2017-05-23T22:44:47.938Z,6.74
2017-05-23T22:47:16.215Z,7.00
2017-05-23T22:49:44.483Z,6.14
2017-05-23T22:52:12.791Z,4.08
2017-05-23T22:54:41.065Z,5.88
2017-05-23T22:57:09.418Z,4.90
2017-05-23T22:59:37.743Z,6.42
2017-05-23T23:02:06.012Z,8.02
2017-05-23T23:04:33.566Z,3.36
2017-05-23T23:07:01.848Z,4.50
2017-05-23T23:09:30.159Z,2.88
2017-05-23T23:11:58.484Z,4.62
2017-05-23T23:14:26.760Z,7.80
2017-05-23T23:16:55.026Z,4.38
2017-05-23T23:19:23.330Z,3.34
2017-05-23T23:21:51.643Z,4.34
2017-05-23T23:24:19.965Z,4.20
2017-05-23T23:26:48.242Z,7.04
2017-05-23T23:29:16.554Z,4.94
2017-05-23T23:31:44.871Z,5.72
2017-05-23T23:34:13.147Z,6.60
2017-05-23T23:36:41.451Z,4.50
2017-05-23T23:39:09.779Z,6.64
2017-05-23T23:41:38.051Z,7.12
2017-05-23T23:44:06.319Z,6.08
2017-05-23T23:46:34.635Z,3.68
2017-05-23T23:49:02.904Z,3.66
2017-05-23T23:51:31.220Z,7.58
2017-05-23T23:53:59.497Z,4.30
2017-05-23T23:56:27.831Z,3.58
2017-05-23T23:58:56.102Z,3.84
